Flight Track Log - Related Links

Times and Time Zones

All times are in EDT time to prevent confusion due to time zone crossing. See the CCA4488 flight status page for this flight to view local times or setup timezone preferences in your user account.

Time Position Orientation Groundspeed Altitude Reporting Facility
EDT Latitude Longitude Course Direction KTS MPH feet Rate Location/Type
Sun 07:42:00 PM 32.6044 103.7129 174° South  Level Estimated
Sun 07:43:00 PM 32.5413 103.7204 174° South  Level Estimated
Sun 07:44:00 PM 32.4782 103.7278 174° South  Level Estimated
Sun 07:45:00 PM 32.4150 103.7353 174° South  Level Estimated
Sun 07:46:00 PM 32.3519 103.7427 174° South  Level Estimated
Sun 07:47:00 PM 32.2887 103.7501 174° South  Level Estimated
Sun 07:48:00 PM 32.2256 103.7575 174° South  Level Estimated
Sun 07:49:00 PM 32.1624 103.7649 174° South  Level Estimated
Sun 07:50:00 PM 32.0993 103.7723 174° South  Level Estimated
Sun 07:51:00 PM 32.0362 103.7796 174° South  Level Estimated
Sun 07:52:00 PM 31.9730 103.7870 174° South  Level Estimated
Sun 07:53:00 PM 31.9099 103.7944 174° South  Level Estimated
Sun 07:54:00 PM 31.8467 103.8017 174° South  Level Estimated
Sun 07:55:00 PM 31.7836 103.8090 174° South  Level Estimated
Sun 07:56:00 PM 31.7204 103.8164 174° South  Level Estimated
Sun 07:57:00 PM 31.6573 103.8237 174° South  Level Estimated
Sun 07:58:00 PM 31.5941 103.8310 174° South  Level Estimated
Sun 07:59:00 PM 31.5310 103.8383 174° South  Level Estimated
Sun 08:00:00 PM 31.4678 103.8456 174° South  Level Estimated
Sun 08:01:00 PM 31.4047 103.8528 174° South  Level Estimated
Sun 08:02:00 PM 31.3415 103.8601 174° South  Level Estimated
Sun 08:03:00 PM 31.2784 103.8673 174° South  Level Estimated
Sun 08:04:00 PM 31.2152 103.8746 174° South  Level Estimated
Sun 08:05:00 PM 31.1521 103.8818 174° South  Level Estimated
Sun 08:06:00 PM 31.0889 103.8891 174° South  Level Estimated
Sun 08:07:00 PM 31.0258 103.8963 174° South  Level Estimated
Sun 08:08:00 PM 30.9626 103.9035 174° South  Level Estimated
Sun 08:09:00 PM 30.8995 103.9107 174° South  Level Estimated
Sun 08:10:00 PM 30.8363 103.9178 174° South  Level Estimated
Sun 08:11:00 PM 30.7732 103.9250 174° South  Level Estimated
Sun 08:12:00 PM 30.7100 103.9322 174° South  Level Estimated
Sun 08:13:00 PM 30.6469 103.9393 174° South  Level Estimated
Sun 08:14:00 PM 30.5837 103.9465 174° South  Level Estimated
Sun 08:15:00 PM 30.5785 103.9471 174° South  Level Estimated
Sun 08:16:00 PM 30.5785 103.9471 North  Level Estimated
Sun 08:17:00 PM 30.5785 103.9471 North  Level Estimated
Sun 08:18:00 PM 30.5785 103.9471 North  Level Estimated
Sun 08:19:00 PM 30.5785 103.9471 North  Level Estimated
Sun 08:20:00 PM 30.5785 103.9471 North  Level Estimated
Sun 08:21:00 PM 30.5785 103.9471 North  Level Estimated

Login

Don't have an account? Register now (free) for customized features, flight alerts, and more!